Time;durP1;ratioP1;P1;durP2;ratioP2;P2;SDS_P1;SDS_P2;PMS_P1;PMS_P2;Temp;Humidity;BMP_temperature;BMP_pressure;BME280_temperature;BME280_humidity;BME280_pressure;Samples;Min_cycle;Max_cycle;Signal;HPM_P1;HPM_P2
2023/01/20 00:01:10;;;;;;;11.82;6.60;;;-0.80;99.90;;;;;;5065565;28;20783;-36
2023/01/20 00:03:37;;;;;;;7.55;5.47;;;-0.80;99.90;;;;;;5066209;28;20516;-35
2023/01/20 00:06:03;;;;;;;7.68;4.88;;;-0.70;99.90;;;;;;5042962;28;20499;-32
2023/01/20 00:08:29;;;;;;;7.13;5.45;;;-0.70;99.90;;;;;;5066077;28;20595;-36
2023/01/20 00:10:54;;;;;;;6.80;5.55;;;-0.70;99.90;;;;;;5047972;28;20596;-33
2023/01/20 00:13:20;;;;;;;7.22;5.03;;;-0.80;99.90;;;;;;5072558;28;20028;-36
2023/01/20 00:15:47;;;;;;;7.15;6.10;;;-0.70;99.90;;;;;;5066936;28;20039;-33
2023/01/20 00:18:13;;;;;;;7.97;5.03;;;-0.70;99.90;;;;;;5066044;28;20434;-35
2023/01/20 00:20:38;;;;;;;5.20;4.45;;;-0.70;99.90;;;;;;5064928;28;20043;-36
2023/01/20 00:23:04;;;;;;;6.40;4.57;;;-0.70;99.90;;;;;;5066682;28;20032;-34
2023/01/20 00:25:30;;;;;;;11.10;7.20;;;-0.70;99.90;;;;;;5064327;28;20556;-38
2023/01/20 00:27:56;;;;;;;7.55;5.60;;;-0.70;99.90;;;;;;5071207;28;20158;-32
2023/01/20 00:30:22;;;;;;;7.95;5.25;;;-0.70;99.90;;;;;;5064414;28;20412;-33
2023/01/20 00:32:47;;;;;;;8.13;5.72;;;-0.70;99.90;;;;;;5065700;28;20036;-34
2023/01/20 00:35:13;;;;;;;7.78;6.97;;;-0.70;99.90;;;;;;5065047;28;20119;-32
2023/01/20 00:37:39;;;;;;;7.65;5.43;;;-0.70;99.90;;;;;;5066191;28;20031;-33
2023/01/20 00:40:05;;;;;;;10.80;5.22;;;-0.70;99.90;;;;;;5064290;28;20501;-35
2023/01/20 00:42:31;;;;;;;6.13;4.70;;;-0.70;99.90;;;;;;5064403;28;20024;-36
2023/01/20 00:44:57;;;;;;;16.42;6.00;;;-0.70;99.90;;;;;;5067828;28;20085;-37
2023/01/20 00:47:23;;;;;;;11.75;5.80;;;-0.70;99.90;;;;;;5045267;28;20032;-35
2023/01/20 00:49:48;;;;;;;10.18;5.82;;;-0.70;99.90;;;;;;5046147;28;20056;-33
2023/01/20 00:52:15;;;;;;;9.57;6.30;;;-0.70;99.90;;;;;;5069591;28;20024;-34
2023/01/20 00:54:40;;;;;;;6.90;4.57;;;-0.80;99.90;;;;;;5065404;28;20119;-33
2023/01/20 00:57:06;;;;;;;10.00;6.55;;;-0.80;99.90;;;;;;5066006;28;20050;-34
2023/01/20 00:59:32;;;;;;;12.05;4.72;;;-0.80;99.90;;;;;;5068732;28;20481;-37
2023/01/20 01:01:58;;;;;;;10.30;6.47;;;-0.80;99.90;;;;;;5064171;28;20036;-37
2023/01/20 01:04:24;;;;;;;9.38;5.40;;;-0.70;99.90;;;;;;5045240;28;20047;-34
2023/01/20 01:06:50;;;;;;;8.75;4.97;;;-0.70;99.90;;;;;;5067182;28;20032;-34
2023/01/20 01:09:16;;;;;;;7.20;5.20;;;-0.70;99.90;;;;;;5055452;28;20043;-31
2023/01/20 01:11:41;;;;;;;6.97;4.38;;;-0.70;99.90;;;;;;5087532;28;20035;-33
2023/01/20 01:14:07;;;;;;;8.02;4.90;;;-0.80;99.90;;;;;;5093987;28;20043;-37
2023/01/20 01:16:33;;;;;;;7.90;4.97;;;-0.80;99.90;;;;;;5071155;28;20073;-34
2023/01/20 01:19:02;;;;;;;8.20;4.90;;;-0.90;99.90;;;;;;5093789;28;20016;-32
2023/01/20 01:21:27;;;;;;;6.47;5.82;;;-0.80;99.90;;;;;;5092080;28;20055;-32
2023/01/20 01:23:53;;;;;;;7.88;4.80;;;-0.90;99.90;;;;;;5091033;28;20139;-35
2023/01/20 01:26:19;;;;;;;5.38;4.13;;;-0.90;99.90;;;;;;5082656;28;20023;-31
2023/01/20 01:28:49;;;;;;;5.10;4.25;;;-1.00;99.90;;;;;;5093076;28;20096;-33
2023/01/20 01:31:20;;;;;;;4.30;3.28;;;-1.10;99.90;;;;;;5089301;28;20055;-31
2023/01/20 01:33:47;;;;;;;7.53;5.00;;;-1.10;99.90;;;;;;5091933;28;20027;-32
2023/01/20 01:36:15;;;;;;;5.07;3.33;;;-1.10;99.90;;;;;;5087160;28;20497;-31
2023/01/20 01:38:42;;;;;;;4.80;4.40;;;-1.10;99.90;;;;;;5061987;28;20024;-32
2023/01/20 01:41:11;;;;;;;5.90;3.28;;;-1.20;99.90;;;;;;5091498;28;20386;-32
2023/01/20 01:43:37;;;;;;;4.10;3.70;;;-1.30;99.90;;;;;;5092901;28;20047;-34
2023/01/20 01:46:04;;;;;;;7.82;4.38;;;-1.30;99.90;;;;;;5097211;28;20031;-35
2023/01/20 01:48:37;;;;;;;7.18;5.15;;;-1.20;99.90;;;;;;5094426;28;20500;-32
2023/01/20 01:51:23;;;;;;;6.80;4.53;;;-1.20;99.90;;;;;;5091700;28;20055;-38
2023/01/20 01:53:56;;;;;;;7.13;4.57;;;-1.10;99.90;;;;;;5088443;28;20032;-32
2023/01/20 01:56:23;;;;;;;5.65;4.00;;;-1.00;99.90;;;;;;5089054;28;20016;-32
2023/01/20 01:58:51;;;;;;;6.28;4.95;;;-1.10;99.90;;;;;;5089391;28;20055;-33
2023/01/20 02:01:17;;;;;;;8.13;5.53;;;-1.10;99.90;;;;;;5062049;28;20036;-34
2023/01/20 02:03:54;;;;;;;6.53;4.53;;;-1.10;99.90;;;;;;5091702;28;20077;-32
2023/01/20 02:06:21;;;;;;;5.80;4.07;;;-1.00;99.90;;;;;;5090719;28;20601;-33
2023/01/20 02:08:48;;;;;;;8.90;4.10;;;-1.00;99.90;;;;;;5077591;28;20056;-33
2023/01/20 02:11:14;;;;;;;6.68;3.78;;;-0.90;99.90;;;;;;5087610;28;20353;-32
2023/01/20 02:13:39;;;;;;;6.03;4.75;;;-0.90;99.90;;;;;;5056688;28;20115;-32
2023/01/20 02:16:24;;;;;;;5.22;3.85;;;-0.90;99.90;;;;;;5092159;28;20401;-35
2023/01/20 02:19:12;;;;;;;7.65;4.65;;;-1.00;99.90;;;;;;5074682;28;20028;-34
2023/01/20 02:22:10;;;;;;;7.20;4.60;;;-0.90;99.90;;;;;;5061242;28;20616;-34
2023/01/20 02:24:50;;;;;;;4.22;3.65;;;-0.90;99.90;;;;;;5021343;28;20048;-34
2023/01/20 02:27:28;;;;;;;10.48;3.65;;;-0.90;99.90;;;;;;5063346;28;20032;-37
2023/01/20 02:29:59;;;;;;;10.05;4.30;;;-1.00;99.90;;;;;;5066155;28;20055;-32
2023/01/20 02:32:43;;;;;;;4.72;3.63;;;-1.10;99.90;;;;;;5063075;28;20039;-35
2023/01/20 02:35:23;;;;;;;5.05;3.58;;;-1.20;99.90;;;;;;5062740;28;20039;-37
2023/01/20 02:38:07;;;;;;;6.18;3.95;;;-1.20;99.90;;;;;;5063200;28;20790;-34
2023/01/20 02:40:51;;;;;;;5.82;3.30;;;-1.20;99.90;;;;;;5067735;28;20028;-34
2023/01/20 02:43:35;;;;;;;4.13;3.25;;;-1.20;99.90;;;;;;5090663;28;20502;-37
2023/01/20 02:46:13;;;;;;;3.65;3.35;;;-1.20;99.90;;;;;;5087138;28;20027;-34
2023/01/20 02:48:52;;;;;;;3.60;2.85;;;-1.20;99.90;;;;;;5089037;28;20393;-33
2023/01/20 02:51:47;;;;;;;5.55;4.30;;;-1.40;99.90;;;;;;5096059;28;20191;-36
2023/01/20 02:54:16;;;;;;;4.72;3.38;;;-1.30;99.90;;;;;;5066524;28;20027;-34
2023/01/20 02:56:42;;;;;;;5.35;4.03;;;-1.30;99.90;;;;;;5071653;28;20043;-33
2023/01/20 02:59:09;;;;;;;6.80;4.10;;;-1.30;99.90;;;;;;5088958;28;20032;-35
2023/01/20 03:01:38;;;;;;;6.97;4.18;;;-1.30;99.90;;;;;;5092466;28;20073;-34
2023/01/20 03:04:05;;;;;;;;;;;-1.20;99.90;;;;;;5092127;28;20114;-33
2023/01/20 03:06:35;;;;;;;5.25;4.43;;;-1.30;99.90;;;;;;5086101;28;19911;-32
2023/01/20 03:09:09;;;;;;;6.07;4.20;;;-1.30;99.90;;;;;;5061423;28;20052;-35
2023/01/20 03:11:39;;;;;;;9.07;4.70;;;-1.30;99.90;;;;;;5066669;28;20032;-34
2023/01/20 03:14:09;;;;;;;4.07;3.65;;;-1.20;99.90;;;;;;5071127;28;20016;-36
2023/01/20 03:16:35;;;;;;;4.13;3.45;;;-1.20;99.90;;;;;;5067603;28;20028;-32
2023/01/20 03:19:00;;;;;;;5.75;4.15;;;-1.20;99.90;;;;;;5066112;28;20067;-32
2023/01/20 03:21:26;;;;;;;8.50;4.60;;;-1.20;99.90;;;;;;5072078;28;20032;-33
2023/01/20 03:23:58;;;;;;;4.90;4.00;;;-1.20;99.90;;;;;;5069496;28;20127;-33
2023/01/20 03:26:24;;;;;;;5.45;3.25;;;-1.20;99.90;;;;;;5099473;28;20032;-32
2023/01/20 03:28:50;;;;;;;5.63;3.55;;;-1.20;99.90;;;;;;5088762;28;20032;-33
2023/01/20 03:31:23;;;;;;;4.93;3.80;;;-1.20;99.90;;;;;;5092003;28;20151;-35
2023/01/20 03:33:52;;;;;;;5.20;3.80;;;-1.30;99.90;;;;;;5092300;28;20058;-35
2023/01/20 03:36:24;;;;;;;5.07;3.33;;;-1.30;99.90;;;;;;5092253;28;20107;-33
2023/01/20 03:38:51;;;;;;;7.20;4.07;;;-1.30;99.90;;;;;;5088770;28;20099;-32
2023/01/20 03:41:35;;;;;;;2.88;2.67;;;-1.40;99.90;;;;;;5093227;28;20024;-33
2023/01/20 03:44:15;;;;;;;5.35;3.63;;;-1.50;99.90;;;;;;5090605;28;20028;-34
2023/01/20 03:46:49;;;;;;;4.10;2.95;;;-1.50;99.90;;;;;;5092240;28;20100;-33
2023/01/20 03:49:23;;;;;;;4.22;3.85;;;-1.50;99.90;;;;;;5092989;28;20487;-32
2023/01/20 03:52:00;;;;;;;5.50;3.10;;;-1.40;99.90;;;;;;5097590;28;20059;-33
2023/01/20 03:54:41;;;;;;;6.15;4.30;;;-1.30;99.90;;;;;;5074573;28;20032;-32
2023/01/20 03:57:15;;;;;;;3.10;2.90;;;-1.30;99.90;;;;;;5077125;28;20052;-33
2023/01/20 03:59:44;;;;;;;4.15;3.28;;;-1.40;99.90;;;;;;5084388;28;20081;-32
2023/01/20 04:02:10;;;;;;;2.58;2.45;;;-1.40;99.90;;;;;;5089610;28;20036;-32
2023/01/20 04:04:40;;;;;;;3.40;2.53;;;-1.50;99.90;;;;;;5095157;28;20032;-32
2023/01/20 04:07:10;;;;;;;2.97;2.78;;;-1.50;99.90;;;;;;5086471;28;20028;-32
2023/01/20 04:09:41;;;;;;;9.40;4.35;;;-1.50;99.90;;;;;;5089329;28;20056;-33
2023/01/20 04:12:07;;;;;;;8.40;4.28;;;-1.50;99.90;;;;;;5093116;28;20036;-32
2023/01/20 04:14:34;;;;;;;8.25;4.75;;;-1.40;99.90;;;;;;5091607;28;20115;-33
2023/01/20 04:17:02;;;;;;;3.60;3.30;;;-1.40;99.90;;;;;;5078489;28;20045;-32
2023/01/20 04:19:28;;;;;;;5.75;4.15;;;-1.30;99.90;;;;;;5070770;28;20365;-35
2023/01/20 04:22:13;;;;;;;7.80;3.78;;;-1.30;99.90;;;;;;5090144;28;20116;-33
2023/01/20 04:24:51;;;;;;;5.63;3.63;;;-1.20;99.90;;;;;;5094501;28;20058;-36
2023/01/20 04:27:16;;;;;;;6.55;4.35;;;-1.20;99.90;;;;;;5092555;28;20028;-33
2023/01/20 04:29:42;;;;;;;5.50;4.88;;;-1.20;99.90;;;;;;5091798;28;20024;-33
2023/01/20 04:32:10;;;;;;;5.07;3.45;;;-1.20;99.90;;;;;;5090227;28;20602;-32
2023/01/20 04:34:36;;;;;;;7.57;4.03;;;-1.30;99.90;;;;;;5091456;28;20306;-35
2023/01/20 04:37:01;;;;;;;5.90;3.60;;;-1.30;99.90;;;;;;5095731;28;20100;-33
2023/01/20 04:39:27;;;;;;;3.92;3.58;;;-1.40;99.90;;;;;;5089320;28;20106;-33
2023/01/20 04:41:53;;;;;;;7.40;4.40;;;-1.40;99.90;;;;;;5088386;28;20485;-36
2023/01/20 04:44:18;;;;;;;6.70;4.20;;;-1.40;99.90;;;;;;5090381;28;20031;-34
2023/01/20 04:46:46;;;;;;;7.78;4.65;;;-1.30;99.90;;;;;;5089834;28;20081;-34
2023/01/20 04:49:12;;;;;;;6.93;4.25;;;-1.30;99.90;;;;;;5073766;28;20107;-34
2023/01/20 04:51:38;;;;;;;5.15;4.45;;;-1.20;99.90;;;;;;5072816;28;20648;-33
2023/01/20 04:54:04;;;;;;;5.95;4.35;;;-1.20;99.90;;;;;;5075345;28;20024;-32
2023/01/20 04:56:29;;;;;;;6.22;4.10;;;-1.20;99.90;;;;;;5080407;28;20024;-32
2023/01/20 04:58:55;;;;;;;6.72;4.72;;;-1.30;99.90;;;;;;5085308;28;20427;-35
2023/01/20 05:01:21;;;;;;;7.25;4.10;;;-1.30;99.90;;;;;;5087859;28;20036;-33
2023/01/20 05:03:46;;;;;;;9.73;5.20;;;-1.30;99.90;;;;;;5085254;28;20564;-32
2023/01/20 05:06:12;;;;;;;5.10;4.03;;;-1.30;99.90;;;;;;5085895;28;20518;-32
2023/01/20 05:08:38;;;;;;;5.90;4.28;;;-1.20;99.90;;;;;;5080525;28;20040;-33
2023/01/20 05:11:04;;;;;;;6.53;4.43;;;-1.20;99.90;;;;;;5085676;28;20027;-32
2023/01/20 05:13:30;;;;;;;5.70;4.75;;;-1.10;99.90;;;;;;5089287;28;20529;-34
2023/01/20 05:15:56;;;;;;;7.53;5.13;;;-1.10;99.90;;;;;;5094590;28;20060;-37
2023/01/20 05:18:22;;;;;;;7.68;5.05;;;-1.10;99.90;;;;;;5088401;28;20035;-36
2023/01/20 05:20:48;;;;;;;6.93;4.55;;;-1.10;99.90;;;;;;5092056;28;20028;-33
2023/01/20 05:23:15;;;;;;;8.40;4.78;;;-1.10;99.90;;;;;;5093956;28;20035;-32
2023/01/20 05:25:40;;;;;;;8.55;5.10;;;-1.10;99.90;;;;;;5091120;28;20024;-33
2023/01/20 05:28:07;;;;;;;8.20;4.47;;;-1.10;99.90;;;;;;5091117;28;20033;-38
2023/01/20 05:30:33;;;;;;;6.43;4.18;;;-1.10;99.90;;;;;;5090412;28;20032;-35
2023/01/20 05:32:58;;;;;;;6.95;4.43;;;-1.10;99.90;;;;;;5090428;28;20035;-32
2023/01/20 05:35:24;;;;;;;4.60;3.92;;;-1.10;99.90;;;;;;5088448;28;20020;-37
2023/01/20 05:37:54;;;;;;;7.72;5.15;;;-1.00;99.90;;;;;;5091701;28;20090;-32
2023/01/20 05:40:20;;;;;;;5.93;4.07;;;-1.00;99.90;;;;;;5088367;28;20024;-32
2023/01/20 05:42:45;;;;;;;5.75;4.97;;;-1.00;99.90;;;;;;5082484;28;20039;-33
2023/01/20 05:45:11;;;;;;;4.88;4.00;;;-1.00;99.90;;;;;;5083525;28;20032;-32
2023/01/20 05:47:37;;;;;;;6.70;4.30;;;-1.00;99.90;;;;;;5077193;28;20569;-34
2023/01/20 05:50:04;;;;;;;7.88;4.40;;;-1.00;99.90;;;;;;5087485;28;20044;-34
2023/01/20 05:52:29;;;;;;;5.80;4.03;;;-1.00;99.90;;;;;;5085219;28;20028;-32
2023/01/20 05:54:55;;;;;;;8.45;4.45;;;-1.00;99.90;;;;;;5092369;28;20028;-32
2023/01/20 05:57:24;;;;;;;8.02;5.28;;;-0.90;99.90;;;;;;5092775;28;20016;-32
2023/01/20 05:59:51;;;;;;;6.53;5.68;;;-0.90;99.90;;;;;;5085720;28;20537;-33
2023/01/20 06:02:18;;;;;;;4.60;4.20;;;-0.90;99.90;;;;;;5092977;28;20169;-33
2023/01/20 06:04:47;;;;;;;6.05;4.05;;;-0.90;99.90;;;;;;5069516;28;20028;-32
2023/01/20 06:07:14;;;;;;;4.75;4.15;;;-0.90;99.90;;;;;;5093505;28;20036;-32
2023/01/20 06:09:47;;;;;;;4.82;4.35;;;-0.90;99.90;;;;;;5068493;28;20082;-35
2023/01/20 06:12:12;;;;;;;4.47;4.07;;;-0.90;99.90;;;;;;5083942;28;20055;-35
2023/01/20 06:14:38;;;;;;;8.73;5.30;;;-0.90;99.90;;;;;;5094879;28;20028;-33
2023/01/20 06:17:04;;;;;;;7.32;4.95;;;-0.90;99.90;;;;;;5092098;28;20086;-32
2023/01/20 06:19:29;;;;;;;8.07;4.75;;;-0.90;99.90;;;;;;5089921;28;20056;-32
2023/01/20 06:21:55;;;;;;;8.43;3.88;;;-0.90;99.90;;;;;;5084853;28;20122;-31
2023/01/20 06:24:20;;;;;;;7.68;4.78;;;-0.90;99.90;;;;;;5091758;28;20028;-32
2023/01/20 06:26:49;;;;;;;6.55;4.90;;;-0.90;99.90;;;;;;5086393;28;20024;-33
2023/01/20 06:29:15;;;;;;;6.20;4.82;;;-1.00;99.90;;;;;;5097966;28;20024;-33
2023/01/20 06:31:40;;;;;;;8.70;4.60;;;-1.00;99.90;;;;;;5064508;28;20519;-32
2023/01/20 06:34:06;;;;;;;9.95;4.88;;;-1.00;99.90;;;;;;5090845;28;20038;-31
2023/01/20 06:36:31;;;;;;;8.98;5.10;;;-0.90;99.90;;;;;;5093296;28;20055;-32
2023/01/20 06:38:57;;;;;;;9.05;6.78;;;-0.90;99.90;;;;;;5090271;28;20030;-35
2023/01/20 06:41:23;;;;;;;7.15;5.22;;;-0.80;99.90;;;;;;5091997;28;20028;-32
2023/01/20 06:43:50;;;;;;;10.75;5.63;;;-0.80;99.90;;;;;;5094696;28;20427;-33
2023/01/20 06:46:16;;;;;;;6.90;5.03;;;-0.80;99.90;;;;;;5097656;28;20030;-35
2023/01/20 06:48:43;;;;;;;8.18;5.28;;;-0.80;99.90;;;;;;5091138;28;20016;-32
2023/01/20 06:51:11;;;;;;;5.85;4.35;;;-0.90;99.90;;;;;;5085889;28;20047;-32
2023/01/20 06:53:37;;;;;;;5.85;4.65;;;-0.90;99.90;;;;;;5073784;28;20039;-33
2023/01/20 06:56:03;;;;;;;4.78;4.18;;;-1.00;99.90;;;;;;5094059;28;20032;-33
2023/01/20 06:58:30;;;;;;;6.07;5.10;;;-1.00;99.90;;;;;;5087409;28;20073;-32
2023/01/20 07:00:57;;;;;;;4.90;4.20;;;-1.00;99.90;;;;;;5093968;28;20036;-32
2023/01/20 07:03:23;;;;;;;8.10;5.13;;;-1.00;99.90;;;;;;5086148;28;20112;-33
2023/01/20 07:06:12;;;;;;;7.65;5.55;;;-1.00;99.90;;;;;;5088919;28;20036;-33
2023/01/20 07:08:37;;;;;;;;;;;-1.00;99.90;;;;;;5080733;28;20036;-32
2023/01/20 07:11:03;;;;;;;8.88;6.60;;;-1.00;99.90;;;;;;5088487;28;20392;-31
2023/01/20 07:13:28;;;;;;;6.75;5.03;;;-1.00;99.90;;;;;;5085052;28;20035;-34
2023/01/20 07:15:54;;;;;;;2.63;2.42;;;-0.90;99.90;;;;;;5089956;28;20145;-33
2023/01/20 07:18:19;;;;;;;6.32;5.38;;;-1.00;99.90;;;;;;5091582;28;20031;-32
2023/01/20 07:20:45;;;;;;;7.05;5.13;;;-1.00;99.90;;;;;;5098282;28;20084;-32
2023/01/20 07:23:10;;;;;;;10.93;5.30;;;-1.00;99.90;;;;;;5098109;28;20080;-31
2023/01/20 07:25:37;;;;;;;5.88;4.28;;;-1.00;99.90;;;;;;5092842;28;20035;-32
2023/01/20 07:28:03;;;;;;;4.97;4.28;;;-1.00;99.90;;;;;;5072645;28;20032;-31
2023/01/20 07:30:29;;;;;;;6.57;5.25;;;-1.00;99.90;;;;;;5084774;28;20028;-31
2023/01/20 07:32:55;;;;;;;7.40;5.63;;;-1.00;99.90;;;;;;5098739;28;20092;-31
2023/01/20 07:35:20;;;;;;;5.95;4.93;;;-1.00;99.90;;;;;;5091637;28;20491;-31
2023/01/20 07:37:46;;;;;;;8.95;5.70;;;-1.00;99.90;;;;;;5094273;28;20043;-31
2023/01/20 07:40:11;;;;;;;5.55;4.22;;;-1.00;99.90;;;;;;5094030;28;20028;-32
2023/01/20 07:42:37;;;;;;;6.55;5.80;;;-1.00;99.90;;;;;;5090727;28;20300;-33
2023/01/20 07:45:04;;;;;;;6.05;5.05;;;-1.10;99.90;;;;;;5088450;28;20036;-32
2023/01/20 07:47:30;;;;;;;5.60;5.10;;;-1.00;99.90;;;;;;5090491;28;20443;-33
2023/01/20 07:49:55;;;;;;;9.57;6.25;;;-1.00;99.90;;;;;;5096195;28;20086;-32
2023/01/20 07:52:21;;;;;;;7.70;5.57;;;-0.90;99.90;;;;;;5093895;28;20108;-31
2023/01/20 07:54:46;;;;;;;8.68;6.25;;;-0.90;99.90;;;;;;5095270;28;20032;-31
2023/01/20 07:57:12;;;;;;;6.97;4.68;;;-1.00;99.90;;;;;;5092523;28;20060;-31
2023/01/20 07:59:37;;;;;;;4.03;3.65;;;-1.00;99.90;;;;;;5089169;28;20481;-32
2023/01/20 08:02:03;;;;;;;10.20;6.53;;;-1.00;99.90;;;;;;5094442;28;20046;-31
2023/01/20 08:04:28;;;;;;;5.82;5.07;;;-1.00;99.90;;;;;;5087287;28;20089;-31
2023/01/20 08:06:54;;;;;;;7.40;4.90;;;-1.00;99.90;;;;;;5098822;28;20028;-30
2023/01/20 08:09:20;;;;;;;8.30;4.63;;;-1.00;99.90;;;;;;5097376;28;20097;-33
2023/01/20 08:11:45;;;;;;;10.10;5.63;;;-1.00;99.90;;;;;;5098472;28;20042;-31
2023/01/20 08:14:11;;;;;;;4.93;3.97;;;-1.00;99.90;;;;;;5095633;28;20418;-32
2023/01/20 08:16:37;;;;;;;8.18;5.57;;;-1.00;99.90;;;;;;5084927;28;20024;-31
2023/01/20 08:19:02;;;;;;;5.35;4.40;;;-1.00;99.90;;;;;;5087086;28;20020;-31
2023/01/20 08:21:30;;;;;;;6.80;6.07;;;-1.00;99.90;;;;;;5071305;28;20027;-31
2023/01/20 08:23:58;;;;;;;10.30;7.28;;;-1.00;99.90;;;;;;5092970;28;20043;-32
2023/01/20 08:26:26;;;;;;;4.03;3.72;;;-0.90;99.90;;;;;;5090643;28;20122;-35
2023/01/20 08:28:53;;;;;;;6.05;5.45;;;-0.90;99.90;;;;;;5092743;28;20546;-31
2023/01/20 08:31:21;;;;;;;10.68;7.57;;;-0.90;99.90;;;;;;5090692;28;20580;-32
2023/01/20 08:33:47;;;;;;;6.30;5.60;;;-0.90;99.90;;;;;;5086973;28;20334;-31
2023/01/20 08:36:23;;;;;;;9.65;5.95;;;-0.90;99.90;;;;;;5089753;28;20050;-31
2023/01/20 08:38:48;;;;;;;10.13;5.60;;;-0.90;99.90;;;;;;5091194;28;20385;-32
2023/01/20 08:41:20;;;;;;;8.00;5.78;;;-0.90;99.90;;;;;;5088460;28;20032;-33
2023/01/20 08:43:46;;;;;;;14.95;7.35;;;-0.80;99.90;;;;;;5095776;28;20046;-33
2023/01/20 08:46:13;;;;;;;11.52;8.07;;;-0.80;99.90;;;;;;5096339;28;20035;-34
2023/01/20 08:48:40;;;;;;;8.57;6.35;;;-0.80;99.90;;;;;;5093124;28;20031;-33
2023/01/20 08:51:08;;;;;;;8.82;5.78;;;-0.80;99.90;;;;;;5089291;28;20078;-33
2023/01/20 08:53:35;;;;;;;9.00;6.75;;;-0.80;99.90;;;;;;5083134;28;20028;-31
2023/01/20 08:56:02;;;;;;;28.80;7.28;;;-0.70;99.90;;;;;;5091657;28;20028;-33
2023/01/20 08:58:29;;;;;;;10.00;6.35;;;-0.70;99.90;;;;;;5088400;28;20366;-32
2023/01/20 09:00:54;;;;;;;11.45;6.93;;;-0.70;99.90;;;;;;5091511;28;20055;-31
2023/01/20 09:03:21;;;;;;;6.00;4.82;;;-0.60;99.90;;;;;;5083813;28;20579;-31
2023/01/20 09:05:47;;;;;;;10.52;7.00;;;-0.60;99.90;;;;;;5082688;28;20040;-31
2023/01/20 09:08:13;;;;;;;5.90;5.38;;;-0.70;99.90;;;;;;5067812;28;20047;-31
2023/01/20 09:10:39;;;;;;;13.07;7.57;;;-0.70;99.90;;;;;;5098144;28;20110;-32
2023/01/20 09:13:05;;;;;;;7.47;6.05;;;-0.70;99.90;;;;;;5085734;28;20167;-32
2023/01/20 09:15:30;;;;;;;9.25;7.78;;;-0.70;99.90;;;;;;5073541;28;20028;-32
2023/01/20 09:17:57;;;;;;;17.50;11.98;;;-0.70;99.90;;;;;;5088535;28;20040;-31
2023/01/20 09:20:24;;;;;;;10.80;7.00;;;-0.70;99.90;;;;;;5089783;28;20020;-31
2023/01/20 09:22:50;;;;;;;10.32;7.97;;;-0.70;99.90;;;;;;5083566;28;20081;-31
2023/01/20 09:25:16;;;;;;;10.98;8.10;;;-0.60;99.90;;;;;;5086467;28;20028;-33
2023/01/20 09:27:41;;;;;;;9.50;5.88;;;-0.60;99.90;;;;;;5061161;28;20106;-32
2023/01/20 09:30:09;;;;;;;8.38;5.95;;;-0.60;99.90;;;;;;5089940;28;20071;-35
2023/01/20 09:32:34;;;;;;;7.63;6.30;;;-0.60;99.90;;;;;;5063717;28;20520;-31
2023/01/20 09:35:00;;;;;;;7.78;5.80;;;-0.60;99.90;;;;;;5080770;28;20111;-31
2023/01/20 09:46:43;;;;;;;9.40;5.88;;;-0.50;99.90;;;;;;5086721;28;20054;-31
2023/01/20 09:55:23;;;;;;;;;;;-0.40;99.90;;;;;;5085422;28;20031;-33
2023/01/20 09:58:25;;;;;;;6.88;5.68;;;-0.40;99.90;;;;;;5079577;28;19912;-33
2023/01/20 10:01:06;;;;;;;4.00;3.63;;;-0.30;99.90;;;;;;5032493;28;20066;-33
2023/01/20 10:04:03;;;;;;;6.22;4.07;;;-0.40;99.90;;;;;;5086192;28;20114;-32
2023/01/20 10:06:36;;;;;;;2.35;2.30;;;-0.30;99.90;;;;;;5096076;28;20397;-34
2023/01/20 10:09:08;;;;;;;9.10;6.43;;;-0.30;99.90;;;;;;5088469;28;20040;-34
2023/01/20 10:11:44;;;;;;;4.88;4.43;;;-0.20;99.90;;;;;;5091112;28;20024;-31
2023/01/20 10:14:31;;;;;;;12.68;6.55;;;-0.30;99.90;;;;;;5086976;28;20032;-33
2023/01/20 10:17:14;;;;;;;9.17;5.07;;;-0.30;99.90;;;;;;5093927;28;20024;-31
2023/01/20 10:19:52;;;;;;;9.20;4.70;;;-0.20;99.90;;;;;;5089279;28;20278;-32
2023/01/20 10:22:26;;;;;;;14.13;9.23;;;-0.20;99.90;;;;;;5100450;28;20024;-31
2023/01/20 10:25:08;;;;;;;11.93;6.65;;;-0.10;99.90;;;;;;5094137;28;20269;-33
2023/01/20 10:27:38;;;;;;;13.80;9.20;;;-0.20;99.90;;;;;;5078852;28;20034;-32
2023/01/20 10:30:12;;;;;;;11.68;7.53;;;-0.10;99.90;;;;;;5092983;28;20031;-33
2023/01/20 10:32:44;;;;;;;11.15;8.02;;;0.00;99.90;;;;;;5093298;28;20036;-33
2023/01/20 10:35:19;;;;;;;6.18;5.10;;;0.00;99.90;;;;;;5085429;28;20024;-32
2023/01/20 10:37:45;;;;;;;11.95;8.43;;;0.00;99.90;;;;;;5096103;28;20043;-32
2023/01/20 10:40:14;;;;;;;12.95;8.18;;;0.00;99.90;;;;;;5098727;28;20081;-32
2023/01/20 10:42:40;;;;;;;8.35;6.32;;;0.00;99.90;;;;;;5096850;28;20035;-32
2023/01/20 10:45:18;;;;;;;14.10;8.48;;;0.00;99.90;;;;;;5094293;28;20107;-33
2023/01/20 10:47:59;;;;;;;12.05;7.95;;;0.00;99.90;;;;;;5095638;28;20031;-33
2023/01/20 10:50:40;;;;;;;14.73;9.38;;;0.00;99.90;;;;;;5094619;28;20039;-32
2023/01/20 10:53:32;;;;;;;12.55;9.38;;;0.00;99.90;;;;;;5099452;28;20019;-36
2023/01/20 10:56:09;;;;;;;7.57;6.70;;;0.00;99.90;;;;;;5093553;28;20040;-35
2023/01/20 10:58:37;;;;;;;8.15;6.85;;;0.00;99.90;;;;;;5092543;28;20381;-32
2023/01/20 11:01:08;;;;;;;15.73;8.88;;;0.00;99.90;;;;;;5090404;28;20432;-31
2023/01/20 11:03:38;;;;;;;11.77;8.48;;;0.10;99.90;;;;;;5098590;28;20503;-32
2023/01/20 11:06:05;;;;;;;16.73;7.90;;;0.20;99.90;;;;;;5093318;28;20032;-34
2023/01/20 11:08:30;;;;;;;9.70;6.25;;;0.20;99.90;;;;;;5095727;28;20093;-32
2023/01/20 11:10:59;;;;;;;14.77;8.48;;;0.20;99.90;;;;;;5088919;28;20068;-31
2023/01/20 11:13:25;;;;;;;14.98;9.18;;;0.20;99.90;;;;;;5085483;28;20115;-34
2023/01/20 11:15:55;;;;;;;15.55;8.57;;;0.20;99.90;;;;;;5091204;28;20157;-35
2023/01/20 11:18:27;;;;;;;3.78;3.55;;;0.30;99.90;;;;;;5093305;28;20482;-34
2023/01/20 11:21:03;;;;;;;13.73;7.82;;;0.20;99.90;;;;;;5094389;28;20020;-32
2023/01/20 11:23:36;;;;;;;8.43;5.95;;;0.20;99.90;;;;;;5092358;28;20016;-32
2023/01/20 11:26:17;;;;;;;9.13;6.30;;;0.30;99.90;;;;;;5088142;28;20493;-37
2023/01/20 11:29:09;;;;;;;16.08;7.82;;;0.30;99.90;;;;;;5097256;28;20689;-33
2023/01/20 11:31:48;;;;;;;10.02;6.20;;;0.40;99.90;;;;;;5079947;28;20184;-32
2023/01/20 11:34:26;;;;;;;10.75;6.30;;;0.40;99.90;;;;;;5083861;28;20089;-33
2023/01/20 11:37:04;;;;;;;10.27;7.53;;;0.40;99.90;;;;;;5086639;28;20044;-34
2023/01/20 11:39:32;;;;;;;18.15;9.10;;;0.50;99.90;;;;;;5085001;28;20259;-34
2023/01/20 11:42:11;;;;;;;;;;;0.50;99.90;;;;;;5075254;28;20036;-32
2023/01/20 11:44:50;;;;;;;16.10;9.52;;;0.50;99.90;;;;;;5067107;28;19916;-35
2023/01/20 11:47:25;;;;;;;7.80;4.93;;;0.60;99.90;;;;;;5067856;28;20134;-36
2023/01/20 11:50:03;;;;;;;7.15;5.75;;;0.50;99.90;;;;;;5054399;28;20163;-33
2023/01/20 11:52:31;;;;;;;12.30;7.72;;;0.50;99.90;;;;;;5068308;28;20028;-32
2023/01/20 11:55:18;;;;;;;18.58;9.80;;;0.60;99.90;;;;;;5082791;28;20069;-35
2023/01/20 11:58:02;;;;;;;15.13;9.38;;;0.70;99.90;;;;;;5089761;28;20031;-37
2023/01/20 12:00:40;;;;;;;11.10;6.63;;;0.70;99.90;;;;;;5086111;28;20149;-34
2023/01/20 12:03:12;;;;;;;18.25;9.70;;;0.70;99.90;;;;;;5088011;28;20031;-32
2023/01/20 12:05:52;;;;;;;18.48;8.27;;;0.60;99.90;;;;;;5095509;28;20385;-32
2023/01/20 12:08:41;;;;;;;12.32;6.80;;;0.70;99.90;;;;;;5095015;28;20043;-31
2023/01/20 12:11:08;;;;;;;15.05;7.07;;;0.70;99.90;;;;;;5092130;28;20056;-32
2023/01/20 12:16:36;;;;;;;17.48;9.07;;;0.70;99.90;;;;;;5091529;28;20128;-32
2023/01/20 12:19:08;;;;;;;4.20;3.85;;;0.70;99.90;;;;;;5090578;28;20056;-32
2023/01/20 12:21:39;;;;;;;8.95;5.43;;;0.80;99.90;;;;;;5091640;28;20027;-31
2023/01/20 12:24:17;;;;;;;8.07;5.00;;;0.90;99.90;;;;;;5091451;28;20052;-34
2023/01/20 12:26:42;;;;;;;14.10;7.45;;;1.00;99.90;;;;;;5084769;28;20043;-32
2023/01/20 12:29:43;;;;;;;11.00;7.05;;;1.10;99.90;;;;;;5086079;28;20473;-33
2023/01/20 12:32:09;;;;;;;18.63;7.95;;;1.00;99.90;;;;;;5093535;28;20047;-31
2023/01/20 12:34:35;;;;;;;11.45;6.03;;;1.00;99.90;;;;;;5101706;28;20372;-31
2023/01/20 12:37:48;;;;;;;6.22;4.82;;;0.90;99.90;;;;;;5085791;28;20099;-31
2023/01/20 12:40:34;;;;;;;5.40;3.90;;;0.90;99.90;;;;;;5066289;28;20032;-32
2023/01/20 12:43:08;;;;;;;12.05;7.43;;;0.90;99.90;;;;;;5089386;28;20036;-31
2023/01/20 12:45:52;;;;;;;9.90;6.70;;;1.00;99.90;;;;;;5093630;28;20019;-33
2023/01/20 12:48:52;;;;;;;6.20;4.53;;;1.00;99.90;;;;;;5092404;28;20515;-33
2023/01/20 12:51:56;;;;;;;8.25;5.03;;;1.00;99.90;;;;;;5075968;28;20039;-34
2023/01/20 12:54:59;;;;;;;6.50;4.57;;;1.00;99.90;;;;;;5091033;28;20036;-31
2023/01/20 12:58:02;;;;;;;16.55;6.75;;;1.00;99.90;;;;;;5049048;28;20128;-32
2023/01/20 13:01:07;;;;;;;8.43;5.95;;;0.90;99.90;;;;;;5089203;28;20027;-33
2023/01/20 13:03:51;;;;;;;10.63;6.07;;;0.90;99.90;;;;;;5097205;28;20031;-31
2023/01/20 13:06:47;;;;;;;10.43;5.35;;;0.90;99.90;;;;;;5080065;28;20081;-31
2023/01/20 13:09:32;;;;;;;8.75;5.25;;;0.90;99.90;;;;;;5091265;28;20051;-33
2023/01/20 13:12:05;;;;;;;5.63;3.05;;;1.00;99.90;;;;;;5096488;28;20036;-34
2023/01/20 13:15:09;;;;;;;3.13;2.28;;;1.00;99.90;;;;;;5088180;28;20067;-31
2023/01/20 13:18:04;;;;;;;10.10;4.95;;;0.90;99.90;;;;;;5091694;28;20024;-31
2023/01/20 13:20:30;;;;;;;4.03;2.88;;;0.90;99.90;;;;;;5092019;28;20032;-31
2023/01/20 13:23:03;;;;;;;4.95;4.13;;;0.90;99.90;;;;;;5072903;28;20551;-32
2023/01/20 13:25:29;;;;;;;7.22;4.65;;;0.90;99.90;;;;;;5092113;28;20035;-32